Time;durP1;ratioP1;P1;durP2;ratioP2;P2;SDS_P1;SDS_P2;PMS_P1;PMS_P2;Temp;Humidity;BMP_temperature;BMP_pressure;BME280_temperature;BME280_humidity;BME280_pressure;Samples;Min_cycle;Max_cycle;Signal;HPM_P1;HPM_P2
2021/07/19 00:00:53;;;;;;;23.22;10.63;;;;;;;23.75;74.48;99312.70;1771717;81;21307;-89
2021/07/19 00:04:00;;;;;;;23.27;11.45;;;;;;;23.72;74.68;99309.11;1771089;81;21332;-88
2021/07/19 00:07:05;;;;;;;26.45;10.80;;;;;;;23.69;74.83;99309.11;1770897;81;21324;-89
2021/07/19 00:10:12;;;;;;;23.45;10.80;;;;;;;23.67;74.98;99305.78;1772322;81;21829;-89
2021/07/19 00:13:17;;;;;;;25.37;10.98;;;;;;;23.66;75.16;99312.45;1771382;81;21303;-89
2021/07/19 00:16:24;;;;;;;19.23;10.78;;;;;;;23.64;75.29;99302.16;1784044;79;21176;-80
2021/07/19 00:19:24;;;;;;;15.78;10.78;;;;;;;23.62;75.46;99304.38;1785582;80;21690;-79
2021/07/19 00:22:16;;;;;;;21.50;10.58;;;;;;;23.60;75.64;99308.00;1783837;80;21161;-79
2021/07/19 00:25:24;;;;;;;18.07;11.55;;;;;;;23.60;75.79;99307.17;1785301;80;21833;-79
2021/07/19 00:28:30;;;;;;;24.50;11.93;;;;;;;23.59;75.84;99307.73;1784097;80;21156;-88
2021/07/19 00:31:35;;;;;;;21.57;11.30;;;;;;;23.56;75.83;99306.90;1785922;80;21735;-88
2021/07/19 00:34:41;;;;;;;21.23;11.30;;;;;;;23.56;75.79;99305.50;1784384;80;21808;-88
2021/07/19 00:37:46;;;;;;;27.13;12.23;;;;;;;23.55;75.80;99310.81;1784311;80;21844;-89
2021/07/19 00:40:51;;;;;;;19.25;12.93;;;;;;;23.55;75.78;99299.66;1785243;80;21220;-89
2021/07/19 00:43:57;;;;;;;23.67;13.98;;;;;;;23.54;75.77;99304.97;1784786;80;21617;-80
2021/07/19 00:47:10;;;;;;;23.95;13.48;;;;;;;23.54;75.73;99301.34;1784112;80;21291;-88
2021/07/19 00:50:10;;;;;;;25.62;13.30;;;;;;;23.52;75.77;99305.80;1785561;80;21319;-88
2021/07/19 00:53:16;;;;;;;25.85;13.00;;;;;;;23.51;75.89;99312.50;1784372;80;21307;-79
2021/07/19 00:56:22;;;;;;;26.95;13.20;;;;;;;23.46;76.24;99313.92;1785829;80;21231;-88
2021/07/19 00:59:29;;;;;;;22.45;12.73;;;;;;;23.41;76.36;99311.16;1785441;80;21336;-79
2021/07/19 01:02:35;;;;;;;21.48;14.30;;;;;;;23.39;76.44;99318.42;1785584;80;21919;-89
2021/07/19 01:05:45;;;;;;;33.55;13.80;;;;;;;23.38;76.48;99314.50;1785275;80;21836;-88
2021/07/19 01:08:51;;;;;;;24.52;13.10;;;;;;;23.38;76.56;99317.30;1785864;80;21342;-89
2021/07/19 01:11:57;;;;;;;20.57;12.85;;;;;;;23.37;76.58;99317.86;1781962;80;21338;-79
2021/07/19 01:15:05;;;;;;;25.05;13.25;;;;;;;23.37;76.66;99319.81;1782726;80;21339;-79
2021/07/19 01:18:09;;;;;;;18.10;13.30;;;;;;;23.35;76.81;99317.32;1771958;81;21726;-79
2021/07/19 01:21:48;;;;;;;22.75;13.80;;;;;;;23.32;76.96;99322.63;1771151;81;21256;-79
2021/07/19 01:25:30;;;;;;;22.87;13.22;;;;;;;23.27;77.16;99328.22;1770961;81;21280;-80
2021/07/19 01:28:44;;;;;;;27.20;14.18;;;;;;;23.19;77.46;99330.46;1733138;83;21417;-79
2021/07/19 01:31:52;;;;;;;32.20;15.13;;;;;;;23.13;77.92;99326.59;1732257;83;21836;-77
2021/07/19 01:34:58;;;;;;;23.45;16.25;;;;;;;23.09;78.09;99331.05;1771023;81;21343;-79
2021/07/19 01:38:06;;;;;;;20.20;13.58;;;;;;;23.07;78.11;99330.52;1772302;81;21249;-79
2021/07/19 01:41:16;;;;;;;34.25;15.30;;;;;;;23.08;78.05;99327.99;1770706;81;21801;-79
2021/07/19 01:44:21;;;;;;;26.97;14.47;;;;;;;23.10;78.07;99332.19;1770897;81;21611;-88
2021/07/19 01:47:27;;;;;;;23.45;14.53;;;;;;;23.10;78.15;99325.22;1762190;81;21728;-89
2021/07/19 01:50:32;;;;;;;27.80;15.03;;;;;;;23.11;78.06;99332.45;1771898;81;21750;-89
2021/07/19 01:53:44;;;;;;;29.42;15.53;;;;;;;23.12;78.04;99336.91;1772375;81;21169;-89
2021/07/19 01:56:51;;;;;;;23.42;14.63;;;;;;;23.12;77.87;99331.89;1771134;81;21330;-80
2021/07/19 01:59:59;;;;;;;29.12;14.63;;;;;;;23.10;77.73;99323.82;1772264;81;21663;-89
2021/07/19 02:03:07;;;;;;;33.08;14.40;;;;;;;23.09;77.70;99330.48;1772425;81;21722;-89
2021/07/19 02:06:15;;;;;;;33.48;15.80;;;;;;;23.11;77.60;99337.20;1771323;81;21311;-89
2021/07/19 02:09:21;;;;;;;28.27;14.80;;;;;;;23.13;77.70;99334.39;1772471;81;21631;-89
2021/07/19 02:12:35;;;;;;;24.75;14.63;;;;;;;23.13;77.81;99338.58;1761232;81;21821;-89
2021/07/19 02:15:43;;;;;;;30.08;15.05;;;;;;;23.14;77.96;99343.03;1771756;81;21292;-80
2021/07/19 02:18:50;;;;;;;32.73;15.85;;;;;;;23.14;77.91;99340.23;1785556;80;21804;-79
2021/07/19 02:21:56;;;;;;;29.07;15.30;;;;;;;23.19;77.93;99342.18;1765461;80;21887;-79
2021/07/19 02:25:09;;;;;;;34.55;14.93;;;;;;;23.24;77.88;99342.73;1785211;80;21818;-80
2021/07/19 02:28:19;;;;;;;35.63;16.48;;;;;;;23.34;77.83;99340.77;1785355;80;21268;-79
2021/07/19 02:31:27;;;;;;;33.50;16.87;;;;;;;23.49;77.59;99347.41;1785276;80;21160;-80
2021/07/19 02:34:32;;;;;;;31.37;17.52;;;;;;;23.67;77.24;99345.42;1785602;80;21745;-89
2021/07/19 02:37:38;;;;;;;34.40;17.42;;;;;;;23.88;76.67;99355.92;1785852;80;21307;-78
2021/07/19 02:40:46;;;;;;;35.03;18.17;;;;;;;24.10;75.88;99358.33;1784266;80;21165;-86
2021/07/19 02:43:56;;;;;;;32.67;17.23;;;;;;;24.30;75.10;99357.35;1785593;80;21271;-87
2021/07/19 02:47:19;;;;;;;28.95;16.55;;;;;;;24.53;74.13;99360.85;1784533;80;21761;-79
2021/07/19 02:50:33;;;;;;;30.68;17.98;;;;;;;24.82;72.85;99360.88;1785047;80;21192;-79
2021/07/19 02:53:39;;;;;;;34.75;17.23;;;;;;;25.11;71.58;99357.29;1785940;80;21260;-90
2021/07/19 02:56:45;;;;;;;31.97;18.25;;;;;;;25.41;69.96;99352.78;1784198;80;21784;-80
2021/07/19 02:59:50;;;;;;;31.97;16.97;;;;;;;25.69;68.57;99356.64;1785629;80;21288;-80
2021/07/19 03:03:02;;;;;;;34.55;17.32;;;;;;;25.99;67.37;99355.42;1766855;80;21286;-80
2021/07/19 03:06:16;;;;;;;31.17;17.98;;;;;;;26.26;65.90;99355.34;1766262;80;21820;-77
2021/07/19 03:09:24;;;;;;;31.73;18.67;;;;;;;26.47;64.98;99351.67;1785656;80;21308;-77
2021/07/19 03:12:31;;;;;;;36.65;18.15;;;;;;;26.59;64.07;99351.22;1770653;80;21153;-77
2021/07/19 03:15:38;;;;;;;41.30;19.57;;;;;;;26.70;63.69;99354.11;1785068;80;21188;-77
2021/07/19 03:18:45;;;;;;;35.85;19.23;;;;;;;26.81;63.29;99356.16;1775025;80;21885;-77
2021/07/19 03:21:50;;;;;;;28.65;19.15;;;;;;;26.85;63.13;99354.41;1772153;81;21213;-77
2021/07/19 03:25:06;;;;;;;28.95;18.40;;;;;;;26.91;62.71;99354.03;1755785;81;21300;-77
2021/07/19 03:28:13;;;;;;;27.85;19.00;;;;;;;27.03;62.43;99356.33;1772202;81;21778;-77
2021/07/19 03:31:20;;;;;;;40.92;17.92;;;;;;;27.17;62.01;99351.61;1772106;81;21185;-77
2021/07/19 03:34:26;;;;;;;22.37;15.43;;;;;;;27.36;61.38;99353.51;1772094;81;21268;-77
2021/07/19 03:37:34;;;;;;;31.12;16.02;;;;;;;27.61;60.80;99355.80;1764203;81;21213;-86
2021/07/19 03:40:41;;;;;;;22.62;15.48;;;;;;;27.87;60.00;99356.72;1771731;81;21326;-89
2021/07/19 03:43:47;;;;;;;29.05;15.75;;;;;;;28.16;59.14;99361.39;1770868;81;21229;-87
2021/07/19 03:46:54;;;;;;;31.52;16.15;;;;;;;28.41;58.32;99353.55;1770935;81;21169;-88
2021/07/19 03:50:04;;;;;;;29.25;16.30;;;;;;;28.81;57.31;99360.16;1770699;81;21186;-88
2021/07/19 03:53:09;;;;;;;26.82;16.55;;;;;;;28.93;56.74;99362.38;1771987;81;21269;-80
2021/07/19 03:56:19;;;;;;;26.40;16.97;;;;;;;28.93;56.74;99362.38;1770587;81;21300;-77
2021/07/19 03:59:30;;;;;;;28.60;16.73;;;;;;;29.02;56.87;99365.53;1772375;81;21276;-87
2021/07/19 04:02:38;;;;;;;23.42;17.07;;;;;;;29.13;56.44;99364.71;1771745;81;21793;-88
2021/07/19 04:05:44;;;;;;;29.50;17.05;;;;;;;29.18;56.28;99364.57;1772069;81;21288;-88
2021/07/19 04:08:51;;;;;;;29.32;16.90;;;;;;;29.21;55.94;99367.30;1772396;81;21264;-88
2021/07/19 04:11:59;;;;;;;25.95;17.00;;;;;;;29.21;55.94;99367.30;1760792;81;21193;-88
2021/07/19 04:15:05;;;;;;;25.30;16.97;;;;;;;29.16;55.73;99363.22;1772213;81;21296;-87
2021/07/19 04:18:12;;;;;;;31.95;17.60;;;;;;;29.11;55.89;99368.98;1771542;80;21217;-79
2021/07/19 04:21:19;;;;;;;28.35;18.05;;;;;;;29.06;56.33;99378.98;1771304;81;21824;-87
2021/07/19 04:24:24;;;;;;;26.23;16.57;;;;;;;29.00;56.49;99381.92;1772282;81;21272;-87
2021/07/19 04:27:32;;;;;;;30.75;17.23;;;;;;;29.05;56.76;99380.96;1771166;81;21276;-87
2021/07/19 04:30:46;;;;;;;24.52;16.45;;;;;;;29.19;56.71;99374.67;1771891;81;21185;-87
2021/07/19 04:33:52;;;;;;;27.62;18.32;;;;;;;29.19;56.71;99374.67;1771238;81;21395;-87
2021/07/19 04:37:00;;;;;;;26.80;17.82;;;;;;;29.28;56.10;99377.55;1770730;80;21185;-87
2021/07/19 04:40:12;;;;;;;30.32;18.87;;;;;;;29.32;56.09;99375.74;1772167;81;21292;-88
2021/07/19 04:43:17;;;;;;;28.85;17.20;;;;;;;29.52;56.09;99369.53;1763787;81;21299;-87
2021/07/19 04:46:24;;;;;;;25.55;18.05;;;;;;;29.52;56.09;99369.53;1771214;81;21244;-79
2021/07/19 04:49:29;;;;;;;26.40;17.42;;;;;;;29.63;56.37;99375.73;1772111;81;21916;-79
2021/07/19 04:52:33;;;;;;;24.20;18.23;;;;;;;29.76;56.38;99368.33;1772017;81;21852;-79
2021/07/19 04:55:39;;;;;;;30.82;17.90;;;;;;;29.90;56.24;99366.80;1772307;81;21308;-88
2021/07/19 04:58:43;;;;;;;24.12;16.75;;;;;;;30.02;56.55;99367.01;1772270;81;21130;-89
2021/07/19 05:01:50;;;;;;;25.15;16.87;;;;;;;30.09;56.07;99365.92;1770827;81;21311;-79
2021/07/19 05:04:59;;;;;;;30.82;16.15;;;;;;;30.12;55.65;99371.50;1771794;81;21296;-79
2021/07/19 05:08:05;;;;;;;21.97;14.95;;;;;;;30.22;55.41;99371.22;1770947;81;21146;-88
2021/07/19 05:11:10;;;;;;;22.17;14.03;;;;;;;30.29;54.33;99372.37;1771374;81;21169;-88
2021/07/19 05:14:16;;;;;;;21.20;13.72;;;;;;;30.35;54.45;99370.80;1772202;81;21308;-88
2021/07/19 05:17:22;;;;;;;21.50;13.88;;;;;;;30.46;54.06;99369.33;1771719;81;21319;-88
2021/07/19 05:20:29;;;;;;;25.08;13.10;;;;;;;30.60;53.83;99364.34;1778269;80;21765;-80
2021/07/19 05:23:34;;;;;;;24.02;13.65;;;;;;;30.74;52.92;99368.44;1785776;80;22068;-88
2021/07/19 05:26:41;;;;;;;21.80;12.00;;;;;;;30.86;52.48;99365.75;1786191;80;21898;-80
2021/07/19 05:29:50;;;;;;;15.50;11.20;;;;;;;30.99;52.48;99367.56;1785839;80;21169;-80
2021/07/19 05:32:54;;;;;;;13.68;10.98;;;;;;;31.10;52.04;99368.06;1786039;80;21276;-85
2021/07/19 05:36:00;;;;;;;21.65;12.20;;;;;;;31.12;50.88;99368.55;1771547;79;21254;-87
2021/07/19 05:39:06;;;;;;;18.40;11.22;;;;;;;31.11;50.78;99361.25;1778916;80;21256;-79
2021/07/19 05:42:10;;;;;;;20.77;12.10;;;;;;;31.14;51.15;99366.79;1775189;80;21642;-83
2021/07/19 05:45:20;;;;;;;20.60;12.78;;;;;;;31.21;51.30;99366.53;1770769;80;21682;-79
2021/07/19 05:48:27;;;;;;;17.32;12.05;;;;;;;31.39;51.23;99356.62;1763579;80;21137;-79
2021/07/19 05:51:32;;;;;;;18.52;11.97;;;;;;;31.52;50.70;99362.06;1768613;80;21291;-86
2021/07/19 05:54:38;;;;;;;25.85;11.70;;;;;;;31.64;51.46;99364.16;1785994;80;21316;-86
2021/07/19 05:57:45;;;;;;;19.55;11.55;;;;;;;31.71;50.60;99365.03;1784655;80;21323;-79
2021/07/19 06:00:50;;;;;;;16.20;11.40;;;;;;;31.77;49.54;99365.11;1775226;80;21254;-78
2021/07/19 06:03:54;;;;;;;17.40;11.28;;;;;;;31.91;48.63;99367.73;1764169;80;21145;-86
2021/07/19 06:07:00;;;;;;;20.92;13.18;;;;;;;32.06;48.30;99370.78;1765012;80;21129;-78
2021/07/19 06:10:07;;;;;;;28.12;11.57;;;;;;;32.16;48.19;99366.73;1785596;80;21192;-79
2021/07/19 06:13:13;;;;;;;21.68;12.93;;;;;;;32.21;48.88;99377.84;1768886;80;21163;-86
2021/07/19 06:16:19;;;;;;;25.02;12.95;;;;;;;32.23;48.51;99367.02;1775201;80;21757;-80
2021/07/19 06:19:24;;;;;;;25.65;13.72;;;;;;;32.29;48.70;99367.64;1775782;80;21252;-79
2021/07/19 06:22:31;;;;;;;19.15;11.80;;;;;;;32.38;49.57;99367.62;1769631;80;21726;-87
2021/07/19 06:25:41;;;;;;;27.13;12.65;;;;;;;32.46;49.16;99370.36;1770616;80;21335;-87
2021/07/19 06:28:45;;;;;;;18.95;13.80;;;;;;;32.54;47.99;99371.47;1775222;80;21169;-85
2021/07/19 06:31:50;;;;;;;25.08;13.43;;;;;;;32.63;48.64;99371.41;1767264;81;21256;-87
2021/07/19 06:34:55;;;;;;;24.45;12.75;;;;;;;32.66;47.18;99363.05;1769725;80;21676;-88
2021/07/19 06:38:01;;;;;;;20.32;12.78;;;;;;;32.67;48.28;99366.13;1762176;81;21277;-86
2021/07/19 06:41:11;;;;;;;21.57;11.43;;;;;;;32.70;47.54;99359.77;1760355;81;21181;-87
2021/07/19 06:44:14;;;;;;;23.05;11.53;;;;;;;32.74;47.31;99357.88;1771839;81;21252;-80
2021/07/19 06:47:20;;;;;;;32.40;12.75;;;;;;;32.81;47.67;99358.75;1767871;80;21256;-87
2021/07/19 06:50:25;;;;;;;21.93;12.95;;;;;;;32.87;46.91;99366.44;1755717;79;21265;-87
2021/07/19 06:53:31;;;;;;;27.62;13.90;;;;;;;32.93;47.82;99362.23;1763117;80;21296;-86
2021/07/19 06:56:37;;;;;;;22.50;12.75;;;;;;;32.97;46.87;99361.19;1752271;81;21802;-87
2021/07/19 06:59:42;;;;;;;23.75;13.68;;;;;;;33.01;48.08;99361.33;1765548;81;21138;-79
2021/07/19 07:02:47;;;;;;;18.77;12.03;;;;;;;33.05;46.02;99362.29;1735134;81;21319;-86
2021/07/19 07:05:54;;;;;;;28.07;11.57;;;;;;;33.05;45.06;99357.45;1703191;84;21192;-86
2021/07/19 07:09:00;;;;;;;16.85;10.48;;;;;;;33.04;44.02;99362.06;1763639;81;21785;-79
2021/07/19 07:12:06;;;;;;;21.93;11.83;;;;;;;33.05;44.94;99356.62;1755847;81;21456;-86
2021/07/19 07:15:12;;;;;;;18.12;12.53;;;;;;;33.05;44.60;99356.62;1760471;80;21248;-80
2021/07/19 07:18:17;;;;;;;16.82;11.50;;;;;;;33.05;44.41;99360.87;1758797;80;21213;-79
2021/07/19 07:21:24;;;;;;;18.05;11.68;;;;;;;33.07;44.57;99359.33;1758590;79;21272;-79
2021/07/19 07:24:30;;;;;;;23.45;11.70;;;;;;;33.13;45.18;99363.39;1747553;82;21237;-86
2021/07/19 07:27:38;;;;;;;21.93;11.15;;;;;;;33.19;44.11;99356.31;1745623;82;21289;-86
2021/07/19 07:30:44;;;;;;;15.20;10.32;;;;;;;33.23;43.79;99362.34;1742923;82;21280;-86
2021/07/19 07:33:49;;;;;;;24.60;10.03;;;;;;;33.31;43.67;99364.26;1747705;82;21810;-79
2021/07/19 07:36:56;;;;;;;23.47;10.08;;;;;;;33.37;42.36;99364.86;1747459;82;21186;-86
2021/07/19 07:40:02;;;;;;;26.65;10.13;;;;;;;33.45;42.31;99367.36;1747421;82;21383;-86
2021/07/19 07:43:07;;;;;;;18.20;10.25;;;;;;;33.46;41.99;99370.45;1717170;83;21297;-86
2021/07/19 07:46:13;;;;;;;18.62;9.95;;;;;;;33.48;41.26;99370.92;1745882;82;21278;-80
2021/07/19 07:49:21;;;;;;;20.77;9.85;;;;;;;33.51;41.73;99364.55;1744102;82;21258;-79
2021/07/19 07:52:26;;;;;;;23.83;9.33;;;;;;;33.57;42.30;99361.72;1746610;82;21305;-79
2021/07/19 07:55:31;;;;;;;16.00;8.15;;;;;;;33.61;42.92;99361.84;1747732;82;21733;-87
2021/07/19 07:58:41;;;;;;;22.52;9.35;;;;;;;33.63;39.92;99363.73;1725155;82;21254;-86
2021/07/19 08:01:40;;;;;;;21.02;8.20;;;;;;;33.65;40.50;99360.79;1742939;82;21280;-87
2021/07/19 08:04:33;;;;;;;11.93;7.45;;;;;;;33.70;39.40;99364.80;1747841;82;21751;-79
2021/07/19 08:07:37;;;;;;;13.62;7.42;;;;;;;33.74;40.41;99357.84;1745645;82;21253;-88
2021/07/19 08:10:48;;;;;;;21.45;7.92;;;;;;;33.79;39.07;99354.77;1745602;82;21550;-86
2021/07/19 08:13:52;;;;;;;14.10;6.00;;;;;;;33.82;38.53;99350.61;1747464;82;21273;-79
2021/07/19 08:16:57;;;;;;;12.30;6.25;;;;;;;33.87;37.67;99345.89;1745756;82;21274;-79
2021/07/19 08:20:04;;;;;;;12.30;6.15;;;;;;;33.94;40.44;99348.97;1747225;82;21147;-86
2021/07/19 08:23:09;;;;;;;13.55;6.10;;;;;;;34.00;38.89;99349.81;1748988;80;21271;-79
2021/07/19 08:26:15;;;;;;;10.85;5.70;;;;;;;34.04;37.94;99344.27;1775147;80;21220;-87
2021/07/19 08:29:21;;;;;;;14.38;6.20;;;;;;;34.07;37.16;99343.56;1759694;80;21215;-87
2021/07/19 08:32:27;;;;;;;16.40;6.70;;;;;;;34.12;37.52;99346.75;1752635;82;21315;-87
2021/07/19 08:35:33;;;;;;;13.13;6.45;;;;;;;34.13;38.05;99339.28;1769682;80;21176;-87
2021/07/19 08:38:39;;;;;;;13.35;5.55;;;;;;;34.15;38.94;99351.09;1740752;82;21743;-87
2021/07/19 08:41:44;;;;;;;15.10;5.22;;;;;;;34.15;38.28;99352.51;1739569;80;21306;-87
2021/07/19 08:44:50;;;;;;;11.33;5.60;;;;;;;34.04;37.93;99340.83;1742559;82;21132;-87
2021/07/19 08:47:58;;;;;;;13.48;6.03;;;;;;;34.00;38.13;99340.48;1727556;83;21367;-87
2021/07/19 08:51:04;;;;;;;11.80;5.47;;;;;;;34.04;38.84;99335.75;1698105;83;21842;-86
2021/07/19 08:54:02;;;;;;;11.65;5.22;;;;;;;34.08;38.01;99335.27;1723222;82;21826;-87
2021/07/19 08:57:08;;;;;;;12.18;5.05;;;;;;;34.10;36.70;99326.40;1744491;82;21148;-87
2021/07/19 09:00:16;;;;;;;14.00;5.30;;;;;;;34.16;37.38;99330.06;1719942;83;21287;-86
2021/07/19 09:03:22;;;;;;;11.22;5.67;;;;;;;34.24;37.74;99326.84;1696504;82;21283;-85
2021/07/19 09:06:28;;;;;;;10.75;5.72;;;;;;;34.26;38.21;99328.15;1719979;82;21773;-86
2021/07/19 09:09:38;;;;;;;13.13;5.47;;;;;;;34.26;37.32;99323.89;1722461;82;21178;-85
2021/07/19 09:12:51;;;;;;;11.10;5.45;;;;;;;34.31;38.01;99325.06;1735511;82;21300;-79
2021/07/19 09:16:05;;;;;;;11.15;5.53;;;;;;;34.38;37.97;99336.39;1713819;82;21453;-79
2021/07/19 09:19:21;;;;;;;9.93;5.33;;;;;;;34.33;37.46;99338.28;1695987;82;21277;-86
2021/07/19 09:22:38;;;;;;;16.48;5.20;;;;;;;34.25;37.83;99329.34;1705498;83;21305;-87
2021/07/19 09:25:44;;;;;;;8.43;4.80;;;;;;;34.20;37.41;99322.47;1695868;84;21203;-86
2021/07/19 09:28:50;;;;;;;15.53;5.15;;;;;;;34.26;37.80;99319.64;1696528;84;21689;-87
2021/07/19 09:32:04;;;;;;;13.85;5.50;;;;;;;34.30;37.77;99323.98;1659843;84;21365;-85
2021/07/19 09:35:18;;;;;;;10.65;5.00;;;;;;;34.27;37.12;99324.72;1719193;83;21348;-79
2021/07/19 09:38:25;;;;;;;17.42;5.72;;;;;;;34.23;37.42;99317.50;1725739;83;21322;-79
2021/07/19 09:41:30;;;;;;;19.25;5.97;;;;;;;34.20;37.39;99319.62;1725559;83;22084;-79
2021/07/19 09:44:36;;;;;;;18.17;5.62;;;;;;;34.22;37.49;99322.13;1725118;83;21181;-79
2021/07/19 09:47:42;;;;;;;7.37;4.72;;;;;;;34.21;37.53;99325.56;1696797;83;21182;-87
2021/07/19 09:50:53;;;;;;;11.10;4.65;;;;;;;34.23;38.69;99324.59;1698974;83;21283;-87
2021/07/19 09:53:58;;;;;;;8.95;4.97;;;;;;;34.19;37.52;99325.67;1704539;83;21241;-79
2021/07/19 09:57:04;;;;;;;13.13;5.45;;;;;;;34.18;36.96;99317.75;1709309;83;21185;-86
2021/07/19 10:00:10;;;;;;;16.10;5.53;;;;;;;34.29;38.82;99319.49;1701717;83;21212;-86
2021/07/19 10:03:20;;;;;;;9.63;5.35;;;;;;;34.35;37.73;99316.66;1706029;83;21346;-79
2021/07/19 10:06:26;;;;;;;10.18;5.05;;;;;;;34.38;37.05;99311.66;1695836;83;21341;-87
2021/07/19 10:09:32;;;;;;;12.47;4.67;;;;;;;34.42;37.39;99319.70;1660642;84;21266;-80
2021/07/19 10:12:37;;;;;;;9.40;4.75;;;;;;;34.47;36.57;99326.57;1695810;83;21731;-79
2021/07/19 10:15:45;;;;;;;12.75;4.75;;;;;;;34.49;36.27;99316.27;1714322;83;21810;-79
2021/07/19 10:18:53;;;;;;;17.17;4.65;;;;;;;34.53;37.49;99318.62;1701252;83;21686;-79
2021/07/19 10:22:00;;;;;;;12.13;4.90;;;;;;;34.50;37.04;99323.63;1710976;84;21315;-79
2021/07/19 10:25:05;;;;;;;21.02;5.37;;;;;;;34.43;36.62;99318.50;1703529;82;21427;-87
2021/07/19 10:28:12;;;;;;;11.08;4.62;;;;;;;34.39;37.11;99318.16;1692415;83;21285;-86
2021/07/19 10:31:16;;;;;;;12.93;4.58;;;;;;;34.36;37.75;99317.48;1695296;83;21785;-87
2021/07/19 10:34:22;;;;;;;9.95;4.60;;;;;;;34.29;36.53;99318.90;1700675;82;21260;-86
2021/07/19 10:37:35;;;;;;;18.00;4.70;;;;;;;34.24;38.03;99321.16;1684925;84;21532;-80
2021/07/19 10:40:41;;;;;;;20.25;4.90;;;;;;;34.20;37.13;99313.95;1750988;81;21304;-80
2021/07/19 10:43:46;;;;;;;9.28;4.50;;;;;;;34.26;37.47;99304.03;1752791;81;21342;-80
2021/07/19 10:46:52;;;;;;;8.03;4.30;;;;;;;34.36;38.31;99307.55;1750095;81;21713;-79
2021/07/19 10:50:05;;;;;;;9.95;4.72;;;;;;;34.32;36.60;99311.69;1734516;81;21256;-79
2021/07/19 10:53:10;;;;;;;10.25;5.03;;;;;;;34.29;38.28;99308.97;1807691;79;21264;-86
2021/07/19 10:56:17;;;;;;;13.35;4.87;;;;;;;34.31;36.93;99302.95;1778876;79;21250;-87
2021/07/19 10:59:38;;;;;;;11.40;4.28;;;;;;;34.34;37.36;99301.62;1764387;81;21122;-86
2021/07/19 11:02:44;;;;;;;8.65;4.40;;;;;;;34.34;36.65;99295.94;1732443;82;21291;-86
2021/07/19 11:05:53;;;;;;;6.95;3.98;;;;;;;34.41;37.62;99300.20;1758586;81;21272;-87
2021/07/19 11:08:59;;;;;;;9.25;4.35;;;;;;;34.41;36.15;99298.78;1735072;82;21852;-79
2021/07/19 11:12:04;;;;;;;13.38;4.40;;;;;;;34.40;35.88;99294.30;1770567;81;21496;-80
2021/07/19 11:15:13;;;;;;;10.35;4.25;;;;;;;34.45;35.93;99295.45;1700073;82;21327;-86
2021/07/19 11:18:36;;;;;;;8.93;4.20;;;;;;;34.43;35.94;99292.96;1687134;84;21836;-80
2021/07/19 11:21:41;;;;;;;11.95;4.28;;;;;;;34.37;35.17;99283.05;1741403;82;21305;-87
2021/07/19 11:24:55;;;;;;;11.03;4.60;;;;;;;34.32;36.39;99279.88;1741765;81;21354;-80
2021/07/19 11:28:01;;;;;;;10.30;4.65;;;;;;;34.29;35.53;99269.23;1781061;80;21319;-78
2021/07/19 11:31:21;;;;;;;11.93;4.72;;;;;;;34.30;37.24;99278.01;1781435;80;21288;-79
2021/07/19 11:34:30;;;;;;;15.63;4.47;;;;;;;34.32;37.08;99279.88;1755050;80;21208;-79
2021/07/19 11:37:39;;;;;;;12.23;4.45;;;;;;;34.33;35.04;99268.75;1779946;80;21252;-86
2021/07/19 11:40:44;;;;;;;12.55;4.10;;;;;;;34.36;36.35;99263.56;1784850;80;21152;-87
2021/07/19 11:43:52;;;;;;;9.63;3.90;;;;;;;34.42;35.86;99277.13;1778709;80;21292;-79
2021/07/19 11:46:57;;;;;;;10.63;4.25;;;;;;;34.41;35.07;99261.87;1770362;81;21287;-87
2021/07/19 11:50:11;;;;;;;14.93;4.28;;;;;;;34.36;34.62;99261.55;1741787;82;21306;-80
2021/07/19 11:53:15;;;;;;;12.07;3.87;;;;;;;34.42;35.34;99267.19;1756052;80;21275;-79
2021/07/19 11:56:20;;;;;;;12.37;4.60;;;;;;;34.40;35.35;99265.31;1763402;79;21192;-79
2021/07/19 11:59:34;;;;;;;8.63;4.25;;;;;;;34.29;34.66;99266.39;1769140;80;21286;-87
2021/07/19 12:02:34;;;;;;;9.68;4.03;;;;;;;34.27;34.86;99264.52;1740158;82;21743;-87
2021/07/19 12:05:39;;;;;;;13.88;4.35;;;;;;;34.32;35.19;99257.17;1728204;82;21275;-87
2021/07/19 12:08:46;;;;;;;12.23;3.40;;;;;;;34.40;36.77;99266.73;1742559;82;21121;-88
2021/07/19 12:11:50;;;;;;;10.45;4.40;;;;;;;34.37;35.01;99260.34;1704736;82;21736;-88
2021/07/19 12:15:06;;;;;;;10.40;4.30;;;;;;;34.31;36.01;99266.06;1724701;82;21326;-88
2021/07/19 12:18:13;;;;;;;14.28;4.30;;;;;;;34.24;34.75;99267.25;1734511;82;21188;-87
2021/07/19 12:21:30;;;;;;;9.80;4.80;;;;;;;34.28;35.31;99264.75;1736578;82;21208;-80
2021/07/19 12:24:35;;;;;;;8.50;3.98;;;;;;;34.31;35.84;99260.38;1736025;82;21306;-80
2021/07/19 12:27:40;;;;;;;11.10;4.70;;;;;;;34.32;34.69;99255.75;1701237;83;21296;-80
2021/07/19 12:30:45;;;;;;;11.25;5.83;;;;;;;34.34;34.71;99254.78;1697512;83;21338;-80
2021/07/19 12:33:50;;;;;;;16.73;5.78;;;;;;;34.37;35.00;99249.00;1731221;82;21249;-87
2021/07/19 12:37:04;;;;;;;13.32;5.28;;;;;;;34.40;35.78;99249.70;1726782;82;21767;-88
2021/07/19 12:40:08;;;;;;;8.00;4.90;;;;;;;34.47;35.83;99246.27;1731772;82;21629;-88
2021/07/19 12:43:15;;;;;;;12.65;4.70;;;;;;;34.51;34.07;99243.77;1726921;83;21845;-87
2021/07/19 12:46:20;;;;;;;10.95;4.70;;;;;;;34.55;33.57;99250.38;1713999;83;21759;-88
2021/07/19 12:49:40;;;;;;;16.97;5.33;;;;;;;34.60;34.19;99257.80;1714363;82;21149;-87
2021/07/19 12:52:44;;;;;;;13.85;5.12;;;;;;;34.61;33.52;99241.59;1725836;82;21255;-87
2021/07/19 12:55:50;;;;;;;17.37;5.60;;;;;;;34.62;33.41;99247.49;1771116;81;21300;-87
2021/07/19 12:59:03;;;;;;;15.58;5.15;;;;;;;34.65;35.09;99247.59;1771974;81;21762;-87
2021/07/19 13:02:09;;;;;;;13.83;5.67;;;;;;;34.65;33.70;99251.86;1758235;81;21185;-80
2021/07/19 13:05:17;;;;;;;16.12;6.08;;;;;;;34.65;34.87;99252.45;1749059;81;21284;-80
2021/07/19 13:08:24;;;;;;;16.07;7.03;;;;;;;34.65;35.32;99243.94;1754953;81;21233;-80
2021/07/19 13:11:29;;;;;;;10.78;6.62;;;;;;;34.67;36.82;99251.48;1745771;81;21677;-80
2021/07/19 13:14:35;;;;;;;17.95;6.83;;;;;;;34.62;37.11;99246.89;1713022;82;21252;-87
2021/07/19 13:17:42;;;;;;;10.15;5.75;;;;;;;34.60;36.01;99246.44;1756518;81;21146;-80
2021/07/19 13:20:47;;;;;;;17.90;8.73;;;;;;;34.55;35.77;99250.97;1753768;81;21825;-87
2021/07/19 13:23:52;;;;;;;15.50;8.65;;;;;;;34.53;38.17;99249.06;1755238;81;21252;-79
2021/07/19 13:27:00;;;;;;;18.55;9.45;;;;;;;34.51;38.51;99252.88;1751479;81;21260;-79
2021/07/19 13:30:05;;;;;;;18.70;8.60;;;;;;;34.42;39.20;99252.17;1759762;81;21282;-87
2021/07/19 13:33:12;;;;;;;18.80;9.33;;;;;;;34.36;38.84;99252.20;1763955;81;21318;-87
2021/07/19 13:36:18;;;;;;;23.60;9.13;;;;;;;34.32;39.70;99254.34;1734788;82;21303;-88
2021/07/19 13:39:34;;;;;;;14.23;9.18;;;;;;;34.30;38.82;99257.28;1730032;82;21272;-88
2021/07/19 13:42:40;;;;;;;16.23;8.68;;;;;;;34.25;39.33;99257.55;1701296;83;21312;-87
2021/07/19 13:45:45;;;;;;;14.10;8.43;;;;;;;34.17;39.18;99265.03;1684304;84;21264;-86
2021/07/19 13:48:51;;;;;;;22.48;9.15;;;;;;;34.07;39.51;99266.96;1714093;83;21243;-86
2021/07/19 13:51:56;;;;;;;15.25;8.80;;;;;;;33.95;40.15;99269.81;1695218;84;21181;-86
2021/07/19 13:55:02;;;;;;;18.42;8.60;;;;;;;33.79;40.71;99260.59;1702171;83;21882;-86
2021/07/19 13:58:07;;;;;;;14.83;8.63;;;;;;;33.70;40.93;99261.31;1693339;83;21149;-85
2021/07/19 14:01:15;;;;;;;16.82;7.90;;;;;;;33.64;40.42;99272.64;1693375;83;21934;-86
2021/07/19 14:04:22;;;;;;;25.25;7.92;;;;;;;33.59;40.32;99261.55;1698142;83;21311;-86
2021/07/19 14:07:28;;;;;;;20.02;9.05;;;;;;;33.57;40.48;99263.92;1697091;83;21293;-86
2021/07/19 14:10:34;;;;;;;19.77;9.53;;;;;;;33.56;40.98;99258.02;1690085;84;21188;-86
2021/07/19 14:13:39;;;;;;;26.12;9.48;;;;;;;33.53;41.55;99259.55;1697490;83;21288;-86
2021/07/19 14:16:45;;;;;;;13.72;8.53;;;;;;;33.51;42.37;99267.59;1727521;82;21272;-87
2021/07/19 14:19:50;;;;;;;10.95;8.05;;;;;;;33.48;43.26;99267.47;1696383;83;21708;-87
2021/07/19 14:22:56;;;;;;;23.40;8.55;;;;;;;33.45;42.37;99261.08;1733890;81;21300;-87
2021/07/19 14:26:02;;;;;;;20.75;8.53;;;;;;;33.47;41.53;99260.16;1731690;82;21741;-79